Time;durP1;ratioP1;P1;durP2;ratioP2;P2;SDS_P1;SDS_P2;PMS_P1;PMS_P2;Temp;Humidity;BMP_temperature;BMP_pressure;BME280_temperature;BME280_humidity;BME280_pressure;Samples;Min_cycle;Max_cycle;Signal;HPM_P1;HPM_P2
2023/10/09 00:02:10;;;;;;;0.20;0.20;;;;;;;3.31;71.73;97254.31;4992687;28;20030;-60
2023/10/09 00:04:38;;;;;;;1.17;0.15;;;;;;;3.30;71.43;97268.50;4992428;28;20034;-61
2023/10/09 00:07:07;;;;;;;0.10;0.10;;;;;;;3.32;72.22;97274.50;4992322;28;20038;-62
2023/10/09 00:09:46;;;;;;;0.20;0.10;;;;;;;3.27;71.72;97274.91;4992317;28;20030;-62
2023/10/09 00:12:25;;;;;;;0.10;0.10;;;;;;;3.29;71.51;97280.88;4992535;28;20022;-63
2023/10/09 00:14:55;;;;;;;0.10;0.10;;;;;;;3.33;72.19;97292.03;4993538;28;20026;-62
2023/10/09 00:17:22;;;;;;;1.40;0.30;;;;;;;3.34;71.79;97292.84;4996054;28;20042;-63
2023/10/09 00:19:49;;;;;;;0.30;0.10;;;;;;;3.36;71.34;97312.03;4996278;28;20052;-62
2023/10/09 00:25:09;;;;;;;0.65;0.20;;;;;;;3.44;71.30;97314.84;4995812;28;20041;-62
2023/10/09 00:27:36;;;;;;;0.52;0.43;;;;;;;3.50;71.06;97314.28;4995805;28;20035;-61
2023/10/09 00:30:03;;;;;;;0.17;0.17;;;;;;;3.42;70.55;97300.94;4995993;28;20433;-61
2023/10/09 00:32:32;;;;;;;0.20;0.20;;;;;;;3.45;71.37;97321.81;4996165;28;20041;-62
2023/10/09 00:35:36;;;;;;;0.20;0.20;;;;;;;3.42;71.81;97314.97;4988156;28;20173;-61
2023/10/09 00:37:44;;;;;;;0.50;0.20;;;;;;;3.49;71.53;97320.53;4978076;28;20089;-61
2023/10/09 00:40:20;;;;;;;0.32;0.25;;;;;;;3.21;72.37;97285.19;4977508;28;20047;-61
2023/10/09 00:42:48;;;;;;;1.35;0.40;;;;;;;3.57;71.27;97341.81;4976642;28;20043;-60
2023/10/09 00:45:24;;;;;;;0.47;0.38;;;;;;;3.54;71.73;97346.59;4976103;28;20488;-64
2023/10/09 00:47:51;;;;;;;1.02;0.32;;;;;;;3.50;72.02;97339.91;4979243;28;20052;-62
2023/10/09 00:52:51;;;;;;;0.40;0.30;;;;;;;3.59;71.85;97350.47;4995952;28;20056;-63
2023/10/09 00:55:27;;;;;;;1.27;0.40;;;;;;;3.50;71.52;97353.94;4994709;28;20176;-61
2023/10/09 00:57:59;;;;;;;1.20;0.43;;;;;;;3.49;71.82;97359.38;4995122;28;20038;-61
2023/10/09 01:00:32;;;;;;;0.47;0.43;;;;;;;3.50;71.89;97366.38;4995318;28;20124;-61
2023/10/09 01:08:31;;;;;;;0.55;0.55;;;;;;;3.53;71.87;97385.41;4994832;28;20061;-63
2023/10/09 01:11:08;;;;;;;0.40;0.40;;;;;;;3.51;71.73;97379.44;4976199;28;20041;-61
2023/10/09 01:13:52;;;;;;;0.52;0.50;;;;;;;3.49;71.76;97377.88;4976090;28;20544;-63
2023/10/09 01:16:21;;;;;;;3.97;0.77;;;;;;;3.57;72.00;97378.88;4994707;28;20054;-61
2023/10/09 01:18:51;;;;;;;0.77;0.70;;;;;;;3.45;71.93;97382.66;4994643;28;20453;-61
2023/10/09 01:21:23;;;;;;;1.00;0.60;;;;;;;3.42;72.76;97375.00;4994576;28;20038;-62
2023/10/09 01:24:04;;;;;;;0.70;0.60;;;;;;;3.48;72.46;97390.31;4994246;28;20026;-61
2023/10/09 01:26:39;;;;;;;0.68;0.57;;;;;;;3.46;72.77;97397.53;4994531;28;20030;-61
2023/10/09 01:29:18;;;;;;;0.68;0.60;;;;;;;3.49;72.45;97402.56;4994443;28;20023;-61
2023/10/09 01:32:00;;;;;;;0.70;0.70;;;;;;;3.48;72.92;97408.81;4995577;28;20126;-62
2023/10/09 01:34:42;;;;;;;1.30;1.10;;;;;;;3.68;71.99;97408.81;4992792;28;20026;-61
2023/10/09 01:37:19;;;;;;;0.65;0.52;;;;;;;3.59;71.92;97424.53;4994012;28;20042;-61
2023/10/09 01:39:48;;;;;;;1.02;0.80;;;;;;;3.55;72.39;97425.78;4993500;28;20034;-62
2023/10/09 01:42:24;;;;;;;0.93;0.60;;;;;;;3.46;72.25;97418.69;4994941;28;20031;-61
2023/10/09 01:44:51;;;;;;;1.38;0.60;;;;;;;3.56;72.95;97447.81;4994460;28;20030;-61
2023/10/09 01:47:18;;;;;;;0.77;0.60;;;;;;;3.59;72.53;97450.19;4994535;28;20060;-62
2023/10/09 01:49:46;;;;;;;1.10;0.70;;;;;;;3.64;73.14;97455.88;4983097;28;20092;-63
2023/10/09 01:52:18;;;;;;;1.13;0.60;;;;;;;3.63;72.68;97448.09;4973790;28;20343;-62
2023/10/09 01:54:51;;;;;;;0.70;0.50;;;;;;;3.69;72.43;97468.72;4975019;28;20044;-62
2023/10/09 01:57:22;;;;;;;1.67;0.80;;;;;;;3.74;72.76;97479.72;4975392;28;20039;-63
2023/10/09 01:59:49;;;;;;;1.20;0.60;;;;;;;3.87;71.72;97469.69;4975702;28;20133;-63
2023/10/09 02:02:26;;;;;;;1.73;0.50;;;;;;;3.78;71.62;97480.28;4974763;28;20425;-62
2023/10/09 02:07:44;;;;;;;0.57;0.57;;;;;;;3.75;72.35;97497.25;4974711;28;20122;-61
2023/10/09 02:10:32;;;;;;;0.43;0.40;;;;;;;3.79;72.18;97498.66;4975479;28;20027;-59
2023/10/09 02:13:09;;;;;;;0.43;0.43;;;;;;;3.85;72.05;97513.97;4974824;28;20026;-62
2023/10/09 02:15:51;;;;;;;0.50;0.45;;;;;;;3.85;72.05;97507.84;4974634;28;20069;-61
2023/10/09 02:23:49;;;;;;;0.32;0.32;;;;;;;3.94;71.80;97517.59;4993523;28;20058;-63
2023/10/09 02:26:32;;;;;;;0.60;0.40;;;;;;;3.96;71.96;97525.41;4994142;28;20061;-61
2023/10/09 02:29:04;;;;;;;0.40;0.40;;;;;;;3.97;71.53;97525.25;4994317;28;20034;-61
2023/10/09 02:31:40;;;;;;;0.50;0.50;;;;;;;3.95;71.78;97510.50;4993598;28;20157;-62
2023/10/09 02:34:10;;;;;;;0.57;0.57;;;;;;;4.08;71.72;97529.59;4986389;28;20378;-62
2023/10/09 02:36:43;;;;;;;1.02;0.40;;;;;;;4.11;71.59;97526.69;4974239;28;20099;-62
2023/10/09 02:39:23;;;;;;;0.95;0.50;;;;;;;4.06;70.95;97539.50;4974991;28;20018;-62
2023/10/09 02:42:19;;;;;;;0.40;0.35;;;;;;;4.10;71.12;97548.00;4974290;28;20035;-61
2023/10/09 02:44:49;;;;;;;0.60;0.60;;;;;;;3.84;71.38;97506.19;4973908;28;20074;-61
2023/10/09 02:47:29;;;;;;;0.47;0.47;;;;;;;4.10;71.33;97551.50;4974480;28;20093;-61
2023/10/09 02:50:01;;;;;;;0.40;0.40;;;;;;;4.05;71.19;97563.47;4973984;28;20031;-62
2023/10/09 02:52:40;;;;;;;0.40;0.38;;;;;;;4.03;70.92;97558.31;4973630;28;20516;-61
2023/10/09 02:55:26;;;;;;;0.45;0.30;;;;;;;3.99;71.63;97564.84;4973589;28;20045;-61
2023/10/09 02:58:11;;;;;;;0.57;0.47;;;;;;;4.05;70.85;97574.88;4973953;28;20035;-62
2023/10/09 03:00:37;;;;;;;0.45;0.30;;;;;;;3.95;71.41;97563.47;4992767;28;20066;-62
2023/10/09 03:03:08;;;;;;;1.55;0.30;;;;;;;4.08;71.34;97573.78;4992844;28;20038;-62
2023/10/09 03:05:34;;;;;;;0.70;0.30;;;;;;;3.75;70.40;97542.25;4992362;28;20401;-63
2023/10/09 03:08:00;;;;;;;0.50;0.50;;;;;;;3.92;71.14;97569.03;4993394;28;20500;-61
2023/10/09 03:10:25;;;;;;;0.60;0.30;;;;;;;4.07;70.55;97590.66;4993300;28;20433;-63
2023/10/09 03:12:53;;;;;;;0.30;0.30;;;;;;;3.95;71.24;97587.28;4992027;28;20092;-62
2023/10/09 03:15:20;;;;;;;2.03;0.60;;;;;;;3.91;71.79;97592.00;4992941;28;20153;-61
2023/10/09 03:17:50;;;;;;;0.50;0.40;;;;;;;4.00;71.11;97607.09;4991636;28;20357;-63
2023/10/09 03:20:17;;;;;;;1.85;0.30;;;;;;;3.99;71.44;97605.41;4992923;28;20488;-62
2023/10/09 03:22:48;;;;;;;0.40;0.38;;;;;;;3.83;71.08;97583.94;4992708;28;20030;-61
2023/10/09 03:25:16;;;;;;;0.20;0.20;;;;;;;3.80;71.17;97574.44;4992952;28;20351;-62
2023/10/09 03:27:46;;;;;;;0.20;0.20;;;;;;;4.11;70.33;97624.69;4993244;28;20041;-62
2023/10/09 03:30:23;;;;;;;0.60;0.25;;;;;;;4.18;70.15;97632.06;4992774;28;20030;-61
2023/10/09 03:32:51;;;;;;;0.30;0.30;;;;;;;4.08;69.70;97635.50;4992801;28;20065;-62
2023/10/09 03:35:24;;;;;;;1.42;0.35;;;;;;;4.00;70.17;97627.44;4992635;28;20449;-62
2023/10/09 03:37:51;;;;;;;0.50;0.30;;;;;;;3.88;69.99;97603.72;4989325;28;20089;-61
2023/10/09 03:40:17;;;;;;;0.35;0.30;;;;;;;4.09;70.41;97637.19;4974311;28;20042;-61
2023/10/09 03:42:44;;;;;;;0.40;0.30;;;;;;;4.11;70.04;97648.50;4973054;28;20373;-62
2023/10/09 03:45:18;;;;;;;0.73;0.40;;;;;;;4.10;69.58;97649.47;4973530;28;20031;-63
2023/10/09 03:47:44;;;;;;;0.30;0.30;;;;;;;4.10;70.22;97646.84;4973224;28;20760;-62
2023/10/09 03:50:26;;;;;;;1.00;0.30;;;;;;;4.01;70.19;97647.63;4976444;28;20047;-63
2023/10/09 03:52:53;;;;;;;0.20;0.20;;;;;;;4.15;70.08;97657.00;4977591;28;20030;-61
2023/10/09 03:55:21;;;;;;;1.05;0.20;;;;;;;4.13;70.04;97659.78;4977006;28;20038;-62
2023/10/09 03:57:47;;;;;;;0.73;0.40;;;;;;;4.14;69.80;97666.78;4984553;28;20026;-61
2023/10/09 04:00:27;;;;;;;0.85;0.35;;;;;;;3.99;69.74;97653.09;4996862;28;20049;-61
2023/10/09 04:02:57;;;;;;;0.20;0.20;;;;;;;4.16;70.46;97670.13;4996935;28;20125;-62
2023/10/09 04:05:24;;;;;;;0.73;0.32;;;;;;;4.10;69.89;97675.97;4990826;28;20134;-62
2023/10/09 04:07:53;;;;;;;0.43;0.40;;;;;;;4.06;69.93;97677.19;4986998;28;20030;-60
2023/10/09 04:13:08;;;;;;;0.85;0.35;;;;;;;3.83;70.34;97656.22;4984890;28;20035;-60
2023/10/09 04:15:35;;;;;;;0.55;0.25;;;;;;;4.00;70.34;97675.09;4986183;28;20121;-63
2023/10/09 04:18:03;;;;;;;0.40;0.30;;;;;;;4.04;70.98;97694.19;4986045;28;20477;-62
2023/10/09 04:23:04;;;;;;;1.63;0.30;;;;;;;4.05;71.08;97703.81;4985983;28;20071;-62
2023/10/09 04:25:40;;;;;;;0.20;0.20;;;;;;;4.11;70.52;97708.56;4986121;28;20023;-61
2023/10/09 04:28:09;;;;;;;0.88;0.30;;;;;;;4.08;70.64;97704.38;4985119;28;20018;-61
2023/10/09 04:30:40;;;;;;;1.95;0.30;;;;;;;4.00;71.06;97702.41;4987765;28;20026;-61
2023/10/09 04:36:12;;;;;;;0.45;0.20;;;;;;;4.21;70.00;97724.47;4985993;28;20043;-60
2023/10/09 04:38:37;;;;;;;0.43;0.22;;;;;;;4.20;70.49;97720.16;4983567;28;20026;-61
2023/10/09 04:41:05;;;;;;;0.30;0.30;;;;;;;3.91;70.82;97682.03;4987027;28;20030;-62
2023/10/09 04:43:32;;;;;;;0.30;0.30;;;;;;;4.05;70.47;97717.88;4985855;28;20459;-62
2023/10/09 04:48:37;;;;;;;1.20;0.40;;;;;;;4.14;70.53;97734.78;4985789;28;20096;-61
2023/10/09 04:51:34;;;;;;;1.58;0.38;;;;;;;4.07;70.42;97746.88;4984649;28;20035;-61
2023/10/09 04:54:12;;;;;;;0.43;0.30;;;;;;;4.06;70.89;97748.69;4985718;28;20042;-60
2023/10/09 04:56:51;;;;;;;0.50;0.25;;;;;;;4.05;71.26;97747.00;4984331;28;20034;-62
2023/10/09 04:59:24;;;;;;;0.40;0.38;;;;;;;4.13;71.33;97752.50;4984166;28;20056;-61
2023/10/09 05:02:04;;;;;;;1.38;0.40;;;;;;;3.85;70.93;97717.81;4984708;28;20119;-60
2023/10/09 05:07:22;;;;;;;0.47;0.35;;;;;;;3.80;70.38;97717.38;4983965;28;20027;-61
2023/10/09 05:09:55;;;;;;;0.57;0.35;;;;;;;4.10;71.06;97771.31;4984550;28;20027;-62
2023/10/09 05:12:26;;;;;;;0.40;0.30;;;;;;;4.23;71.08;97771.06;4982073;28;20041;-61
2023/10/09 05:15:13;;;;;;;1.02;0.40;;;;;;;4.25;70.49;97769.13;4975834;28;20074;-62
2023/10/09 05:17:39;;;;;;;0.30;0.30;;;;;;;4.20;70.13;97775.78;4976252;28;20042;-63
2023/10/09 05:22:59;;;;;;;0.30;0.30;;;;;;;4.25;70.33;97778.88;4974863;28;20050;-61
2023/10/09 05:28:25;;;;;;;0.80;0.30;;;;;;;4.28;70.34;97773.28;4975008;28;20035;-58
2023/10/09 05:31:07;;;;;;;0.77;0.40;;;;;;;4.40;70.34;97782.81;4989527;28;20031;-60
2023/10/09 05:33:36;;;;;;;0.40;0.30;;;;;;;4.37;69.87;97793.69;4994664;28;20041;-59
2023/10/09 05:36:31;;;;;;;0.43;0.30;;;;;;;4.47;70.05;97796.38;4994324;28;20345;-62
2023/10/09 05:39:16;;;;;;;0.32;0.20;;;;;;;4.49;69.17;97806.81;4994829;28;20030;-60
2023/10/09 05:41:59;;;;;;;0.30;0.30;;;;;;;4.50;68.69;97804.06;4993239;28;20449;-61
2023/10/09 06:06:01;;;;;;;1.05;0.35;;;;;;;4.61;68.50;97856.13;4994035;28;20030;-62
2023/10/09 06:19:08;;;;;;;1.00;0.38;;;;;;;4.83;68.87;97865.66;4992648;28;20042;-62
2023/10/09 06:24:19;;;;;;;0.40;0.40;;;;;;;4.64;67.43;97826.69;4993555;28;20083;-62
2023/10/09 06:29:51;;;;;;;1.08;0.60;;;;;;;4.64;68.42;97826.69;4993916;28;20341;-64
2023/10/09 06:34:46;;;;;;;0.70;0.50;;;;;;;5.14;67.71;97880.66;4991798;28;20069;-62
2023/10/09 06:42:33;;;;;;;2.35;0.50;;;;;;;5.42;67.02;97878.16;4991657;28;20065;-62
2023/10/09 06:45:04;;;;;;;2.10;0.50;;;;;;;5.48;67.16;97893.53;4974768;28;20039;-62
2023/10/09 06:47:40;;;;;;;0.82;0.50;;;;;;;5.52;67.38;97897.56;4991176;28;20038;-61
2023/10/09 06:50:56;;;;;;;0.85;0.30;;;;;;;5.67;66.39;97907.78;4993905;28;20081;-61
2023/10/09 06:52:58;;;;;;;2.50;0.40;;;;;;;5.75;66.15;97910.56;4993014;28;20062;-60
2023/10/09 06:55:36;;;;;;;1.60;0.45;;;;;;;5.78;65.97;97920.09;4988742;28;20449;-63
2023/10/09 06:58:09;;;;;;;1.13;0.47;;;;;;;5.85;65.89;97926.50;4976695;28;20039;-63
2023/10/09 07:03:33;;;;;;;0.75;0.35;;;;;;;6.04;65.16;97925.69;4993079;28;20525;-64
2023/10/09 07:06:09;;;;;;;1.83;0.45;;;;;;;6.13;64.66;97930.16;4993591;28;20038;-62
2023/10/09 07:08:44;;;;;;;0.50;0.40;;;;;;;6.16;64.28;97940.47;4993662;28;20026;-65
2023/10/09 07:11:56;;;;;;;0.50;0.47;;;;;;;6.20;64.46;97935.72;4993088;28;20129;-61
2023/10/09 07:17:04;;;;;;;0.75;0.60;;;;;;;6.28;64.60;97949.13;4992522;28;20068;-61
2023/10/09 07:19:57;;;;;;;2.33;0.60;;;;;;;6.28;64.14;97958.94;4991296;28;20053;-61
2023/10/09 07:30:35;;;;;;;0.93;0.60;;;;;;;6.21;63.52;97966.63;4983548;28;20035;-61
2023/10/09 07:38:20;;;;;;;3.08;0.77;;;;;;;6.05;64.40;97987.63;4972906;28;20493;-60
2023/10/09 07:41:33;;;;;;;1.40;0.73;;;;;;;6.02;64.54;97986.94;4973403;28;20041;-60
2023/10/09 07:43:45;;;;;;;1.85;1.08;;;;;;;6.16;64.75;98006.91;4972868;28;20026;-61
2023/10/09 07:46:32;;;;;;;1.88;0.80;;;;;;;6.15;64.78;98001.75;4973205;28;20042;-61
2023/10/09 07:49:08;;;;;;;1.27;1.02;;;;;;;6.22;64.21;98009.97;4973524;28;20137;-60
2023/10/09 07:51:44;;;;;;;1.20;0.60;;;;;;;5.95;64.30;97984.94;4976690;28;20529;-59
2023/10/09 07:54:14;;;;;;;;;;;;;;;6.53;64.35;98012.47;4975205;28;20038;-71
2023/10/09 07:56:41;;;;;;;0.85;0.63;;;;;;;6.11;64.88;97985.25;4988022;28;20327;-61
2023/10/09 07:59:11;;;;;;;2.45;0.80;;;;;;;6.36;64.79;98019.34;4981675;28;20030;-64
2023/10/09 08:01:52;;;;;;;1.10;0.60;;;;;;;6.49;64.58;98024.34;4971296;28;20605;-63
2023/10/09 08:04:20;;;;;;;3.05;0.65;;;;;;;6.59;64.02;98019.88;4972596;28;20026;-57
2023/10/09 08:06:47;;;;;;;2.25;0.65;;;;;;;6.62;63.82;98027.56;4972968;28;20085;-61
2023/10/09 08:17:15;;;;;;;1.67;0.60;;;;;;;6.61;62.53;98032.03;4991714;28;20143;-59
2023/10/09 08:19:54;;;;;;;0.73;0.50;;;;;;;6.82;62.72;98049.63;4991078;28;20036;-60
2023/10/09 08:24:56;;;;;;;0.60;0.60;;;;;;;6.45;62.52;98045.09;4981374;28;20027;-63
2023/10/09 08:35:47;;;;;;;1.23;0.50;;;;;;;6.42;62.60;98070.13;4959936;28;20042;-60
2023/10/09 08:38:14;;;;;;;0.73;0.40;;;;;;;6.49;62.87;98075.72;4977649;28;20500;-62
2023/10/09 08:40:42;;;;;;;2.38;0.93;;;;;;;6.57;62.58;98091.81;4975135;28;20601;-61
2023/10/09 08:43:18;;;;;;;2.03;0.50;;;;;;;6.60;62.01;98080.88;4976013;28;20046;-62
2023/10/09 08:45:53;;;;;;;1.35;0.52;;;;;;;6.69;62.23;98089.00;4974314;28;20093;-59
2023/10/09 08:48:21;;;;;;;1.30;0.50;;;;;;;6.83;61.67;98077.91;4975666;28;20038;-60
2023/10/09 08:50:54;;;;;;;1.30;0.50;;;;;;;6.88;61.44;98085.47;4992384;28;20078;-62
2023/10/09 08:53:21;;;;;;;0.47;0.40;;;;;;;6.78;60.65;98096.13;4981489;28;20038;-58
2023/10/09 08:55:47;;;;;;;0.30;0.30;;;;;;;6.54;61.18;98067.34;4975672;28;20035;-60
2023/10/09 08:58:24;;;;;;;0.60;0.40;;;;;;;6.83;60.93;98107.16;4974647;28;20097;-57
2023/10/09 09:00:51;;;;;;;0.60;0.40;;;;;;;6.90;61.17;98110.09;4994343;28;20480;-66
2023/10/09 09:03:18;;;;;;;1.25;0.40;;;;;;;6.93;60.94;98109.00;4993817;28;20022;-59
2023/10/09 09:05:49;;;;;;;0.88;0.50;;;;;;;6.93;60.77;98093.84;4995000;28;20038;-63
2023/10/09 09:08:26;;;;;;;0.80;0.50;;;;;;;7.29;60.37;98112.69;4994709;28;20045;-62
2023/10/09 09:11:17;;;;;;;0.70;0.50;;;;;;;7.51;60.48;98115.97;4994984;28;20038;-61
2023/10/09 09:13:48;;;;;;;1.55;0.40;;;;;;;7.51;58.49;98115.97;4980436;28;20133;-62
2023/10/09 09:16:20;;;;;;;1.15;0.50;;;;;;;7.22;58.68;98084.13;4975071;28;20061;-61
2023/10/09 09:19:00;;;;;;;0.75;0.50;;;;;;;7.51;59.06;98131.09;4976679;28;20059;-64
2023/10/09 09:21:35;;;;;;;2.28;0.55;;;;;;;7.46;59.02;98121.72;4974000;28;20074;-66
2023/10/09 09:24:01;;;;;;;0.70;0.50;;;;;;;7.35;58.99;98113.06;4987693;28;20060;-64
2023/10/09 09:27:00;;;;;;;1.20;0.70;;;;;;;7.53;59.41;98129.09;4972317;28;20462;-64
2023/10/09 09:29:36;;;;;;;1.08;0.35;;;;;;;7.52;58.91;98117.63;4973001;28;20685;-65
2023/10/09 09:33:15;;;;;;;0.77;0.50;;;;;;;7.47;58.86;98128.72;4972502;28;20381;-67
2023/10/09 09:34:57;;;;;;;0.90;0.40;;;;;;;7.54;58.38;98122.78;4981688;28;20072;-70
2023/10/09 09:37:51;;;;;;;1.58;0.50;;;;;;;7.53;58.25;98137.09;4987043;28;20506;-61
2023/10/09 09:40:30;;;;;;;1.20;0.47;;;;;;;7.35;59.01;98137.84;4981032;28;20058;-61
2023/10/09 09:43:04;;;;;;;2.55;0.63;;;;;;;7.13;59.46;98096.47;4974979;28;20023;-62
2023/10/09 09:45:32;;;;;;;0.70;0.40;;;;;;;7.40;59.61;98148.06;4974929;28;20042;-62
2023/10/09 09:48:05;;;;;;;0.68;0.40;;;;;;;7.38;59.44;98152.72;4973817;28;20089;-61
2023/10/09 09:50:33;;;;;;;0.30;0.22;;;;;;;7.32;59.24;98149.66;4974306;28;20062;-62
2023/10/09 09:52:59;;;;;;;0.90;0.40;;;;;;;7.27;58.87;98146.59;4974978;28;20461;-62
2023/10/09 09:55:31;;;;;;;0.77;0.40;;;;;;;7.19;59.72;98149.13;4976520;28;20034;-65
2023/10/09 09:57:57;;;;;;;0.50;0.40;;;;;;;7.24;59.71;98160.19;4992525;28;20073;-61
2023/10/09 10:01:16;;;;;;;0.20;0.20;;;;;;;7.33;59.88;98172.63;4979633;28;20296;-63
2023/10/09 10:03:26;;;;;;;0.50;0.30;;;;;;;7.49;59.89;98168.53;4971772;28;20042;-61
2023/10/09 10:05:56;;;;;;;0.75;0.50;;;;;;;7.48;59.77;98156.19;4993370;28;20037;-59
2023/10/09 10:08:31;;;;;;;1.98;0.50;;;;;;;7.50;59.53;98172.00;4993553;28;20523;-62
2023/10/09 10:11:06;;;;;;;0.70;0.43;;;;;;;7.43;58.93;98161.09;4994320;28;20042;-61
2023/10/09 10:13:41;;;;;;;1.77;0.30;;;;;;;7.45;59.59;98175.97;4989041;28;20026;-59
2023/10/09 10:16:19;;;;;;;1.00;0.30;;;;;;;7.26;60.49;98170.69;4973198;28;20046;-61
2023/10/09 10:18:53;;;;;;;0.50;0.30;;;;;;;7.24;60.70;98185.97;4974701;28;20046;-60
2023/10/09 10:21:33;;;;;;;0.95;0.30;;;;;;;6.91;60.94;98146.38;4975212;28;20042;-61
2023/10/09 10:24:06;;;;;;;1.40;0.45;;;;;;;7.06;61.24;98185.84;4973291;28;20311;-59
2023/10/09 10:26:35;;;;;;;0.40;0.25;;;;;;;6.99;61.67;98189.09;4974442;28;20117;-60
2023/10/09 10:29:23;;;;;;;0.40;0.20;;;;;;;6.99;62.20;98181.09;4974237;28;20063;-61
2023/10/09 10:31:57;;;;;;;1.02;0.30;;;;;;;6.96;61.40;98189.34;4973742;28;20358;-58
2023/10/09 10:34:24;;;;;;;1.88;0.45;;;;;;;6.88;61.57;98178.56;4981978;28;20034;-59
2023/10/09 10:37:00;;;;;;;0.32;0.30;;;;;;;6.86;62.02;98197.31;4981400;28;20528;-53
2023/10/09 10:39:44;;;;;;;0.52;0.40;;;;;;;6.92;62.15;98200.44;4977799;28;20390;-62
2023/10/09 10:42:33;;;;;;;0.60;0.30;;;;;;;6.77;60.82;98160.94;4982627;28;20038;-65
2023/10/09 10:44:56;;;;;;;0.50;0.30;;;;;;;7.02;59.81;98196.78;4988228;28;20031;-58
2023/10/09 10:47:33;;;;;;;0.50;0.40;;;;;;;6.93;59.68;98186.97;4976179;28;20035;-59
2023/10/09 10:50:27;;;;;;;0.60;0.30;;;;;;;6.95;59.66;98208.94;4981576;28;20307;-60
2023/10/09 10:52:57;;;;;;;0.63;0.32;;;;;;;6.95;60.68;98210.78;4972828;28;20399;-58
2023/10/09 10:58:02;;;;;;;1.50;0.52;;;;;;;7.02;60.22;98223.41;4973395;28;20035;-63
2023/10/09 11:03:23;;;;;;;1.95;0.40;;;;;;;7.01;60.76;98215.53;4986732;28;20031;-62
2023/10/09 11:05:52;;;;;;;0.90;0.38;;;;;;;6.92;60.31;98219.06;4973360;28;20469;-61
2023/10/09 11:08:23;;;;;;;1.17;0.60;;;;;;;6.83;59.96;98226.06;4977519;28;20022;-63
2023/10/09 11:10:50;;;;;;;0.38;0.30;;;;;;;6.81;60.75;98243.97;4973392;28;20450;-61
2023/10/09 11:13:34;;;;;;;1.02;0.30;;;;;;;6.77;60.86;98247.91;4973579;28;20035;-60
2023/10/09 11:16:23;;;;;;;1.08;0.50;;;;;;;6.80;59.84;98242.28;4982187;28;20062;-61
2023/10/09 11:18:51;;;;;;;0.70;0.38;;;;;;;6.78;59.68;98254.91;4975387;28;20046;-60
2023/10/09 11:26:25;;;;;;;0.90;0.60;;;;;;;6.75;59.48;98243.56;4981230;28;20442;-63
2023/10/09 11:29:29;;;;;;;0.80;0.60;;;;;;;6.87;60.12;98262.03;4980951;28;20457;-62
2023/10/09 11:31:59;;;;;;;0.40;0.38;;;;;;;6.89;59.42;98265.38;4986162;28;20034;-61
2023/10/09 11:34:29;;;;;;;0.70;0.40;;;;;;;6.97;59.61;98262.88;4991087;28;20065;-59
2023/10/09 11:36:59;;;;;;;1.95;0.55;;;;;;;7.10;59.41;98265.25;4991893;28;20034;-63
2023/10/09 11:39:36;;;;;;;1.05;0.63;;;;;;;6.88;60.11;98234.44;4986823;28;20026;-54
2023/10/09 11:42:06;;;;;;;2.08;0.63;;;;;;;6.79;60.48;98237.94;4989242;28;20218;-62
2023/10/09 11:44:45;;;;;;;0.63;0.30;;;;;;;6.89;60.97;98260.06;4990636;28;20119;-62
2023/10/09 11:49:56;;;;;;;0.80;0.38;;;;;;;6.59;62.31;98299.91;4971456;28;20023;-63
2023/10/09 11:54:58;;;;;;;1.25;0.30;;;;;;;6.46;62.69;98305.47;4990127;28;20037;-62
2023/10/09 11:57:33;;;;;;;1.65;0.50;;;;;;;6.29;62.61;98276.91;4993025;28;20050;-62
2023/10/09 12:00:47;;;;;;;0.50;0.43;;;;;;;6.41;63.00;98306.88;4992625;28;20030;-63
2023/10/09 12:02:52;;;;;;;1.08;0.60;;;;;;;6.59;61.33;98307.06;4986422;28;20484;-63
2023/10/09 12:05:18;;;;;;;1.63;0.68;;;;;;;6.44;62.09;98312.75;4991833;28;20058;-60
2023/10/09 12:07:57;;;;;;;1.52;0.60;;;;;;;6.31;62.06;98315.63;4972528;28;20035;-63
2023/10/09 12:10:25;;;;;;;0.40;0.40;;;;;;;6.31;62.13;98323.63;4974755;28;20114;-62
2023/10/09 12:12:58;;;;;;;0.73;0.52;;;;;;;6.43;62.26;98334.16;4975803;28;20356;-62
2023/10/09 12:15:24;;;;;;;1.27;0.60;;;;;;;6.40;62.14;98326.47;4976975;28;20046;-62
2023/10/09 12:17:53;;;;;;;0.60;0.60;;;;;;;6.47;62.16;98338.22;4987480;28;20471;-61
2023/10/09 12:20:31;;;;;;;1.35;0.60;;;;;;;6.51;62.36;98330.81;4983123;28;20065;-63
2023/10/09 12:23:01;;;;;;;0.32;0.28;;;;;;;6.44;62.99;98352.63;4986151;28;20045;-66
2023/10/09 12:25:31;;;;;;;3.25;0.85;;;;;;;6.39;63.05;98338.03;4988740;28;20039;-62
2023/10/09 12:27:57;;;;;;;0.80;0.70;;;;;;;6.36;63.21;98343.63;4976317;28;20026;-60
2023/10/09 12:30:26;;;;;;;1.25;0.52;;;;;;;6.33;63.11;98336.78;4976213;28;20507;-58
2023/10/09 12:32:58;;;;;;;0.47;0.40;;;;;;;6.39;63.37;98354.84;4959112;28;20347;-61
2023/10/09 12:35:24;;;;;;;2.28;0.50;;;;;;;6.42;62.72;98354.59;4977837;28;20096;-65
2023/10/09 12:37:54;;;;;;;0.98;0.60;;;;;;;6.42;62.79;98367.88;4977413;28;20079;-58
2023/10/09 12:40:24;;;;;;;0.90;0.50;;;;;;;6.43;62.77;98358.91;4976381;28;20035;-61
2023/10/09 12:42:52;;;;;;;0.50;0.50;;;;;;;6.49;62.21;98367.34;4990246;28;20031;-61
2023/10/09 12:45:25;;;;;;;0.77;0.30;;;;;;;6.26;61.82;98314.34;4977570;28;20027;-64
2023/10/09 12:47:53;;;;;;;0.85;0.60;;;;;;;6.65;61.28;98365.03;4976405;28;20138;-61
2023/10/09 12:50:27;;;;;;;0.77;0.60;;;;;;;6.58;60.93;98362.06;4978076;28;20042;-60
2023/10/09 12:53:01;;;;;;;0.93;0.55;;;;;;;6.31;61.45;98331.59;4984090;28;20031;-58
2023/10/09 12:55:31;;;;;;;0.40;0.20;;;;;;;6.49;62.24;98380.63;4988960;28;20101;-60
2023/10/09 12:58:06;;;;;;;1.17;0.68;;;;;;;6.57;61.99;98375.50;4975699;28;20027;-60
2023/10/09 13:00:48;;;;;;;1.05;0.40;;;;;;;6.53;62.20;98382.91;4958915;28;20063;-62
2023/10/09 13:03:18;;;;;;;0.85;0.50;;;;;;;6.35;62.26;98374.72;4989468;28;20062;-63
2023/10/09 13:05:52;;;;;;;0.60;0.50;;;;;;;6.47;62.15;98386.91;4981987;28;20444;-62
2023/10/09 13:08:23;;;;;;;1.23;0.60;;;;;;;6.43;62.43;98385.50;4981965;28;20026;-63
2023/10/09 13:10:58;;;;;;;1.77;0.90;;;;;;;6.46;62.20;98395.88;4993137;28;20117;-64
2023/10/09 13:13:40;;;;;;;2.38;0.65;;;;;;;6.51;62.37;98402.59;4993439;28;20069;-63
2023/10/09 13:16:07;;;;;;;0.75;0.60;;;;;;;6.44;62.68;98404.97;4993333;28;20129;-60
2023/10/09 13:18:33;;;;;;;1.00;0.55;;;;;;;6.39;63.19;98407.16;4974641;28;20054;-61
2023/10/09 13:21:03;;;;;;;1.05;0.55;;;;;;;6.36;63.75;98402.97;4988199;28;20030;-61
2023/10/09 13:23:38;;;;;;;2.55;0.60;;;;;;;6.31;63.96;98405.19;4989831;28;20069;-61
2023/10/09 13:26:17;;;;;;;4.00;0.70;;;;;;;6.14;64.53;98370.25;4975457;28;20034;-62
2023/10/09 13:28:50;;;;;;;0.95;0.43;;;;;;;6.30;64.45;98409.66;4985062;28;20042;-71
2023/10/09 13:31:16;;;;;;;1.05;0.50;;;;;;;6.24;64.67;98423.47;4991653;28;20041;-58
2023/10/09 13:33:43;;;;;;;1.83;0.60;;;;;;;6.18;64.60;98416.03;4988606;28;20031;-56
2023/10/09 13:36:55;;;;;;;4.15;0.52;;;;;;;6.26;65.09;98418.88;4981029;28;20473;-59
2023/10/09 13:39:26;;;;;;;1.23;0.50;;;;;;;6.22;65.21;98432.53;4994098;28;20038;-60
2023/10/09 13:42:06;;;;;;;1.30;0.63;;;;;;;6.15;65.65;98426.94;4994471;28;20041;-60
2023/10/09 13:44:34;;;;;;;4.50;0.70;;;;;;;6.01;65.62;98444.00;4979794;28;20120;-61
2023/10/09 13:47:02;;;;;;;4.75;0.60;;;;;;;5.80;66.27;98420.06;4974714;28;20136;-61
2023/10/09 13:49:31;;;;;;;1.27;0.70;;;;;;;5.97;66.03;98440.75;4975707;28;20031;-61
2023/10/09 13:52:01;;;;;;;0.47;0.40;;;;;;;6.00;66.35;98450.25;4975289;28;20031;-61
2023/10/09 13:54:39;;;;;;;1.73;0.60;;;;;;;5.92;66.34;98458.03;4980972;28;20023;-60
2023/10/09 13:57:06;;;;;;;2.00;0.70;;;;;;;5.82;66.32;98455.31;4973858;28;20031;-56
2023/10/09 13:59:35;;;;;;;0.80;0.43;;;;;;;5.81;66.79;98472.22;4974923;28;20373;-63
2023/10/09 14:02:08;;;;;;;3.78;0.80;;;;;;;5.86;65.66;98464.69;4980146;28;20034;-61
2023/10/09 14:04:34;;;;;;;1.08;0.57;;;;;;;5.51;66.34;98434.78;4981667;28;20220;-62
2023/10/09 14:07:01;;;;;;;2.10;0.50;;;;;;;5.63;66.65;98453.34;4974769;28;20438;-62
2023/10/09 14:09:30;;;;;;;2.47;0.95;;;;;;;5.77;66.24;98471.59;4976416;28;20041;-64
2023/10/09 14:12:07;;;;;;;2.03;0.60;;;;;;;5.71;66.94;98472.97;4992399;28;20520;-63
2023/10/09 14:14:38;;;;;;;0.75;0.60;;;;;;;5.63;67.62;98490.50;4968437;28;20034;-65
2023/10/09 14:17:11;;;;;;;1.08;0.70;;;;;;;5.62;68.37;98478.19;4975343;28;20050;-61
2023/10/09 14:19:38;;;;;;;2.60;0.65;;;;;;;5.65;67.44;98494.72;4984919;28;20035;-61
2023/10/09 14:22:05;;;;;;;1.95;0.75;;;;;;;5.57;67.79;98487.38;4992940;28;20113;-60
2023/10/09 14:24:34;;;;;;;0.70;0.50;;;;;;;5.32;67.05;98451.38;4990639;28;20364;-61
2023/10/09 14:27:04;;;;;;;1.30;0.60;;;;;;;5.57;67.57;98507.78;4988144;28;20137;-61
2023/10/09 14:29:31;;;;;;;1.15;0.60;;;;;;;5.50;67.52;98506.59;4985041;28;20422;-57